Latest  Newer  Older  Last 2 hours slideshow  Last 24 hours slideshow  Refresh every 5 minutes 
Current image  Latest image  Rain/snow radar  Cloud coverage sat images 

All time is UTC (add 2 hours to UTC in wintertime, 3 hours to UTC in DST for Latvia local time)

2021/11/30 19:50 EVRA 301950Z VRB05KT 9999 SCT027 OVC032 M02/M05 Q0987 NOSIG
2021/11/30 19:50 EVLA 301950Z AUTO 33003KT 9999 FEW044/// BKN052/// BKN059/// M01/M03 Q0990
2021/11/30 19:50 EVVA 301950Z AUTO 34013KT 310V010 9999 OVC046 01/M06 Q0989
2021/11/30 19:50 EYKA 301950Z 25002KT 7000 OVC018 M04/M06 Q0989
2021/11/30 19:50 EYPA 301950Z VRB01KT 9999 SCT043 M02/M04 Q0991
2021/11/30 19:50 EYSA 301950Z 27007KT 9999 SCT047 M04/M07 Q0989 NOSIG
2021/11/30 19:50 EYVI 301950Z 19003KT 4600 BR SCT013 BKN025 M05/M05 Q0989 TEMPO 0600 FZFG VV002
2021/11/30 16:20 EEKA 301620Z 33022KT 9999 BKN019 M03/M06 Q0986
2021/11/30 19:50 EEKE 301950Z AUTO 34008KT 300V010 9999NDV FEW029 OVC035 M01/M06 Q0987

2021/11/30 19:50 EETN 301950Z 32013KT 9999 DRSN BKN011 OVC017 M06/M08 Q0983 NOSIG
2021/11/30 19:50 EETU 301950Z AUTO 29011KT 260V320 9999 -SN OVC010/// M06/M08 Q0982 RESG
   RIGA AIRPORT     EVRA               56 55N  023 58E   10   X     T          6 LV
   LIEPAJA INTL     EVLA        26406  56 31N  021 06E    4   X                8 LV
   VENTPILS         EVVA               57 21N  021 33E    6   X                8 LV
   KAUNAS           EYKA               54 54N  023 55E   77   X     T          6 LT
   PALANGA INTL     EYPA               55 55N  021 03E   10   X                6 LT
   SIAULIAI INTL    EYSA               55 54N  023 24E  135   X     T          6 LT
   VILNIUS INTL     EYVI        26730  54 38N  025 17E  197   X     T          6 LT
   KARDLA           EEKA        26116  58 59N  022 50E    4   X                8 EE
   KURESSAARE       EEKE               58 14N  022 31E    4   X                8 EE
   PARNU            EEPU               58 25N  024 28E   14   X                8 EE
   TALLINN          EETN        26038  59 24N  024 49E   40   X     T          8 EE
   TARTU            EETU               58 19N  026 41E   67   X                8 EE